Time;durP1;ratioP1;P1;durP2;ratioP2;P2;SDS_P1;SDS_P2;PMS_P1;PMS_P2;Temp;Humidity;BMP_temperature;BMP_pressure;BME280_temperature;BME280_humidity;BME280_pressure;Samples;Min_cycle;Max_cycle;Signal;HPM_P1;HPM_P2
2021/03/14 00:00:57;;;;;;;1.90;0.40;;;6.30;99.90;;;;;;4988569;28;20117;-75
2021/03/14 00:03:26;;;;;;;0.73;0.20;;;6.20;99.90;;;;;;4994594;28;20112;-76
2021/03/14 00:05:52;;;;;;;0.85;0.20;;;6.30;99.90;;;;;;4990632;28;20142;-74
2021/03/14 00:08:19;;;;;;;1.25;0.30;;;6.30;99.90;;;;;;4992658;28;20078;-75
2021/03/14 00:10:48;;;;;;;1.73;0.65;;;6.30;99.90;;;;;;5012065;28;20538;-75
2021/03/14 00:13:17;;;;;;;0.65;0.10;;;6.30;99.90;;;;;;5002274;28;20086;-74
2021/03/14 00:15:43;;;;;;;2.08;0.50;;;6.30;99.90;;;;;;4989951;28;20297;-75
2021/03/14 00:18:09;;;;;;;0.30;0.20;;;6.30;99.90;;;;;;4995238;28;20075;-75
2021/03/14 00:20:36;;;;;;;1.58;0.25;;;6.30;99.90;;;;;;5004248;28;20079;-75
2021/03/14 00:23:02;;;;;;;1.23;0.30;;;6.30;99.90;;;;;;5002947;28;20162;-75
2021/03/14 00:25:28;;;;;;;0.50;0.10;;;6.30;99.90;;;;;;5004427;28;20071;-74
2021/03/14 00:27:53;;;;;;;2.95;0.65;;;6.30;99.90;;;;;;5004599;28;20083;-75
2021/03/14 00:30:19;;;;;;;0.55;0.20;;;6.30;99.90;;;;;;5010564;28;20101;-75
2021/03/14 00:32:45;;;;;;;1.55;0.20;;;6.30;99.90;;;;;;5011574;28;20082;-74
2021/03/14 00:35:14;;;;;;;1.17;0.30;;;6.30;99.90;;;;;;5028383;22;20118;-80
2021/03/14 00:37:40;;;;;;;1.60;0.25;;;6.30;99.90;;;;;;5047438;28;20674;-79
2021/03/14 00:40:07;;;;;;;2.00;0.50;;;6.30;99.90;;;;;;5051664;28;20109;-80
2021/03/14 00:42:33;;;;;;;0.77;0.28;;;6.20;99.90;;;;;;5047002;28;20077;-79
2021/03/14 00:44:58;;;;;;;1.10;0.22;;;6.10;99.90;;;;;;5035076;28;20147;-79
2021/03/14 00:47:24;;;;;;;1.50;0.20;;;6.10;99.90;;;;;;5049300;28;20556;-80
2021/03/14 00:49:50;;;;;;;0.63;0.25;;;6.00;99.90;;;;;;5038546;28;20457;-80
2021/03/14 00:52:15;;;;;;;1.00;0.30;;;6.00;99.90;;;;;;5034181;28;20496;-80
2021/03/14 00:54:41;;;;;;;1.73;0.30;;;6.00;99.90;;;;;;5045162;28;20133;-79
2021/03/14 00:57:07;;;;;;;1.10;0.20;;;5.90;99.90;;;;;;5033458;28;20129;-80
2021/03/14 00:59:33;;;;;;;0.32;0.17;;;5.80;99.90;;;;;;5034789;28;21133;-80
2021/03/14 01:01:58;;;;;;;0.32;0.10;;;5.70;99.90;;;;;;5032879;28;20085;-80
2021/03/14 01:04:24;;;;;;;1.00;0.30;;;5.60;99.90;;;;;;5043557;28;20610;-80
2021/03/14 01:06:50;;;;;;;1.38;0.20;;;5.70;99.90;;;;;;5042912;28;20074;-80
2021/03/14 01:09:16;;;;;;;0.32;0.17;;;5.60;99.90;;;;;;5032689;28;20078;-80
2021/03/14 01:11:41;;;;;;;1.13;0.30;;;5.60;99.90;;;;;;5042006;28;20089;-79
2021/03/14 01:14:07;;;;;;;0.65;0.20;;;5.50;99.90;;;;;;5041646;28;20360;-80
2021/03/14 01:16:33;;;;;;;0.40;0.10;;;5.50;99.90;;;;;;5044003;28;20081;-80
2021/03/14 01:18:58;;;;;;;0.95;0.20;;;5.50;99.90;;;;;;5043684;28;20144;-79
2021/03/14 01:21:24;;;;;;;0.60;0.30;;;5.40;99.90;;;;;;5047657;28;20086;-79
2021/03/14 01:23:50;;;;;;;0.85;0.30;;;5.50;99.90;;;;;;5044274;28;20077;-80
2021/03/14 01:26:16;;;;;;;0.57;0.20;;;5.40;99.90;;;;;;5039465;28;20104;-79
2021/03/14 01:28:41;;;;;;;0.43;0.20;;;5.40;99.90;;;;;;5047392;28;20128;-79
2021/03/14 01:31:07;;;;;;;0.30;0.10;;;5.40;99.90;;;;;;5042966;28;20082;-80
2021/03/14 01:33:32;;;;;;;0.45;0.15;;;5.30;99.90;;;;;;5044255;28;20074;-80
2021/03/14 01:35:58;;;;;;;0.70;0.10;;;5.20;99.90;;;;;;5034216;28;20108;-80
2021/03/14 01:38:24;;;;;;;1.65;0.32;;;5.20;99.90;;;;;;5028434;28;20430;-79
2021/03/14 01:40:50;;;;;;;0.55;0.13;;;5.20;99.90;;;;;;5027964;28;20082;-79
2021/03/14 01:43:16;;;;;;;0.13;0.10;;;5.20;99.90;;;;;;5045454;28;20227;-80
2021/03/14 01:45:41;;;;;;;0.68;0.28;;;5.20;99.90;;;;;;5046638;28;20097;-80
2021/03/14 01:48:07;;;;;;;0.43;0.10;;;5.10;99.90;;;;;;5046273;28;20070;-79
2021/03/14 01:50:35;;;;;;;0.45;0.20;;;5.10;99.90;;;;;;5043405;28;20110;-79
2021/03/14 01:53:02;;;;;;;0.52;0.10;;;5.00;99.90;;;;;;5030382;28;20093;-79
2021/03/14 01:55:27;;;;;;;0.40;0.28;;;5.00;99.90;;;;;;5034420;28;20124;-79
2021/03/14 01:57:53;;;;;;;0.73;0.10;;;4.90;99.90;;;;;;5046641;28;20132;-78
2021/03/14 02:00:24;;;;;;;1.30;0.30;;;4.90;99.90;;;;;;5044032;28;20137;-78
2021/03/14 02:02:49;;;;;;;0.82;0.25;;;4.90;99.90;;;;;;5029253;28;20077;-79
2021/03/14 02:05:18;;;;;;;1.58;0.15;;;4.80;99.90;;;;;;5045773;28;20101;-78
2021/03/14 02:07:45;;;;;;;0.25;0.10;;;4.70;99.90;;;;;;5036530;28;20141;-79
2021/03/14 02:10:13;;;;;;;0.70;0.20;;;4.50;99.90;;;;;;5033306;28;20121;-79
2021/03/14 02:12:55;;;;;;;0.77;0.10;;;4.50;99.90;;;;;;5046540;28;20089;-79
2021/03/14 02:15:22;;;;;;;0.32;0.10;;;4.60;99.90;;;;;;5037129;28;20124;-79
2021/03/14 02:17:49;;;;;;;0.35;0.15;;;4.50;99.90;;;;;;5045967;28;20564;-79
2021/03/14 02:20:18;;;;;;;1.52;0.13;;;4.50;99.90;;;;;;5044696;28;20102;-79
2021/03/14 02:22:53;;;;;;;0.52;0.22;;;4.50;99.90;;;;;;5045631;28;20145;-80
2021/03/14 02:25:34;;;;;;;0.45;0.10;;;4.40;99.90;;;;;;5050126;28;20089;-80
2021/03/14 02:28:00;;;;;;;0.32;0.10;;;4.50;99.90;;;;;;5054021;28;20077;-80
2021/03/14 02:30:26;;;;;;;0.30;0.10;;;4.40;99.90;;;;;;5048326;28;20085;-80
2021/03/14 02:32:52;;;;;;;0.10;0.10;;;4.50;99.90;;;;;;5035170;28;20140;-80
2021/03/14 02:35:20;;;;;;;0.30;0.10;;;4.40;99.90;;;;;;5049278;28;20113;-80
2021/03/14 02:37:48;;;;;;;0.20;0.10;;;4.40;99.90;;;;;;5056445;28;20176;-79
2021/03/14 02:40:14;;;;;;;0.60;0.17;;;4.50;99.90;;;;;;5067074;28;20093;-80
2021/03/14 02:42:41;;;;;;;1.20;0.10;;;4.40;99.90;;;;;;5049757;28;20732;-79
2021/03/14 02:45:10;;;;;;;0.30;0.10;;;4.30;99.90;;;;;;5047460;28;20139;-79
2021/03/14 02:47:37;;;;;;;1.00;0.20;;;4.30;99.90;;;;;;5041165;28;20189;-80
2021/03/14 02:50:16;;;;;;;0.90;0.15;;;4.40;99.90;;;;;;5035181;28;20694;-80
2021/03/14 02:52:43;;;;;;;0.45;0.20;;;4.30;99.90;;;;;;5034893;28;20488;-80
2021/03/14 02:55:10;;;;;;;0.20;0.20;;;4.30;99.90;;;;;;5053314;28;20177;-79
2021/03/14 02:57:37;;;;;;;0.10;0.10;;;4.30;99.90;;;;;;5049925;28;20089;-79
2021/03/14 03:00:07;;;;;;;0.20;0.10;;;4.30;99.90;;;;;;5048949;28;20085;-80
2021/03/14 03:02:33;;;;;;;1.55;0.10;;;4.40;99.90;;;;;;5039417;28;20136;-80
2021/03/14 03:04:58;;;;;;;1.23;0.20;;;4.30;99.90;;;;;;5048358;28;20144;-80
2021/03/14 03:07:24;;;;;;;0.20;0.20;;;4.30;99.90;;;;;;5053860;28;20084;-79
2021/03/14 03:09:54;;;;;;;0.10;0.10;;;4.20;99.90;;;;;;5070892;28;20080;-79
2021/03/14 03:12:23;;;;;;;0.73;0.70;;;4.30;99.90;;;;;;5062737;28;20116;-79
2021/03/14 03:14:51;;;;;;;0.10;0.10;;;4.40;99.90;;;;;;5051688;28;20635;-80
2021/03/14 03:17:18;;;;;;;0.20;0.20;;;4.40;99.90;;;;;;5048432;28;20082;-80
2021/03/14 03:19:44;;;;;;;0.15;0.10;;;4.30;99.90;;;;;;5035381;28;20136;-79
2021/03/14 03:22:10;;;;;;;0.10;0.10;;;4.40;99.90;;;;;;5042958;28;20088;-80
2021/03/14 03:24:36;;;;;;;0.65;0.10;;;4.30;99.90;;;;;;5050078;28;20077;-80
2021/03/14 03:27:02;;;;;;;0.10;0.10;;;4.30;99.90;;;;;;5032313;28;20149;-80
2021/03/14 03:29:27;;;;;;;0.10;0.10;;;4.30;99.90;;;;;;5032830;28;20653;-80
2021/03/14 03:31:53;;;;;;;0.38;0.38;;;4.30;99.90;;;;;;5036997;28;20526;-80
2021/03/14 03:34:19;;;;;;;0.57;0.10;;;4.20;99.90;;;;;;5031717;28;20089;-79
2021/03/14 03:36:45;;;;;;;0.05;0.05;;;4.20;99.90;;;;;;5036072;28;20144;-80
2021/03/14 03:39:12;;;;;;;0.22;0.00;;;4.30;99.90;;;;;;5046382;28;20554;-80
2021/03/14 03:41:59;;;;;;;0.10;0.10;;;4.30;99.90;;;;;;5046491;28;20078;-79
2021/03/14 03:44:26;;;;;;;0.13;0.10;;;4.30;99.90;;;;;;5046663;28;20077;-80
2021/03/14 03:46:56;;;;;;;0.35;0.10;;;4.30;99.90;;;;;;5048350;28;20223;-80
2021/03/14 03:49:26;;;;;;;0.10;0.10;;;4.30;99.90;;;;;;5051123;28;20115;-80
2021/03/14 03:51:52;;;;;;;1.50;0.10;;;4.30;99.90;;;;;;5048720;28;20086;-80
2021/03/14 03:54:19;;;;;;;0.90;0.10;;;4.30;99.90;;;;;;5032420;28;20928;-80
2021/03/14 03:56:45;;;;;;;0.10;0.10;;;4.30;99.90;;;;;;5035140;28;20549;-80
2021/03/14 03:59:11;;;;;;;1.13;0.10;;;4.40;99.90;;;;;;5039431;28;20108;-79
2021/03/14 04:01:41;;;;;;;0.43;0.40;;;4.30;99.90;;;;;;5045042;28;20082;-79
2021/03/14 04:04:07;;;;;;;2.63;0.20;;;4.30;99.90;;;;;;5050492;28;20127;-79
2021/03/14 04:06:34;;;;;;;1.13;0.10;;;4.30;99.90;;;;;;5050880;28;20156;-80
2021/03/14 04:09:01;;;;;;;0.45;0.10;;;4.30;99.90;;;;;;5047594;28;20089;-80
2021/03/14 04:11:27;;;;;;;0.00;0.00;;;4.40;99.90;;;;;;5048436;28;20081;-80
2021/03/14 04:13:54;;;;;;;0.00;0.00;;;4.30;99.90;;;;;;5054184;28;20104;-80
2021/03/14 04:16:20;;;;;;;3.42;0.10;;;4.30;99.90;;;;;;5041045;28;20105;-80
2021/03/14 04:18:47;;;;;;;1.17;0.20;;;4.30;99.90;;;;;;5029600;28;20938;-79
2021/03/14 04:21:16;;;;;;;0.00;0.00;;;4.30;99.90;;;;;;5032504;28;20074;-80
2021/03/14 04:23:45;;;;;;;0.00;0.00;;;4.30;99.90;;;;;;5041349;28;20080;-79
2021/03/14 04:26:12;;;;;;;0.00;0.00;;;4.20;99.90;;;;;;5034888;28;20093;-80
2021/03/14 04:28:38;;;;;;;0.00;0.00;;;4.20;99.90;;;;;;5048006;28;20089;-80
2021/03/14 04:31:04;;;;;;;0.17;0.08;;;4.30;99.90;;;;;;5047498;28;20109;-80
2021/03/14 04:33:31;;;;;;;0.08;0.00;;;4.20;99.90;;;;;;5048146;28;20127;-80
2021/03/14 04:35:59;;;;;;;0.20;0.10;;;4.30;99.90;;;;;;5045246;28;20109;-79
2021/03/14 04:38:26;;;;;;;0.20;0.10;;;4.20;99.90;;;;;;5033519;28;20089;-80
2021/03/14 04:40:54;;;;;;;0.20;0.10;;;4.30;99.90;;;;;;5050120;28;20073;-80
2021/03/14 04:43:21;;;;;;;0.22;0.10;;;4.20;99.90;;;;;;5048521;28;20131;-79
2021/03/14 04:45:48;;;;;;;0.20;0.00;;;4.20;99.90;;;;;;5033144;28;20200;-80
2021/03/14 04:48:16;;;;;;;0.10;0.10;;;4.20;99.90;;;;;;5044131;28;20078;-80
2021/03/14 04:50:42;;;;;;;0.65;0.00;;;4.20;99.90;;;;;;5046072;28;20074;-79
2021/03/14 04:53:08;;;;;;;0.00;0.00;;;4.20;99.90;;;;;;5031150;28;20077;-79
2021/03/14 04:55:36;;;;;;;0.32;0.10;;;4.20;99.90;;;;;;5030580;28;20186;-80
2021/03/14 04:58:02;;;;;;;1.30;0.10;;;4.20;99.90;;;;;;5032588;28;20094;-79
2021/03/14 05:00:29;;;;;;;0.30;0.30;;;4.10;99.90;;;;;;5036153;28;20132;-80
2021/03/14 05:03:01;;;;;;;0.43;0.30;;;4.10;99.90;;;;;;5035586;28;20082;-79
2021/03/14 05:05:27;;;;;;;0.15;0.05;;;4.10;99.90;;;;;;5047850;28;20085;-79
2021/03/14 05:07:53;;;;;;;0.10;0.10;;;4.00;99.90;;;;;;5045192;28;20413;-79
2021/03/14 05:10:25;;;;;;;0.00;0.00;;;3.90;99.90;;;;;;5031205;28;20070;-80
2021/03/14 05:12:51;;;;;;;1.35;0.22;;;3.80;99.90;;;;;;5047326;28;20088;-79
2021/03/14 05:15:18;;;;;;;0.00;0.00;;;3.50;99.90;;;;;;5043425;28;20093;-80
2021/03/14 05:17:46;;;;;;;0.00;0.00;;;3.40;99.90;;;;;;5047791;28;20120;-79
2021/03/14 05:20:15;;;;;;;0.20;0.20;;;3.20;99.90;;;;;;5045938;28;20094;-79
2021/03/14 05:22:42;;;;;;;0.13;0.10;;;3.20;99.90;;;;;;5033880;28;20070;-80
2021/03/14 05:25:09;;;;;;;0.08;0.08;;;3.20;99.90;;;;;;5047867;28;20100;-79
2021/03/14 05:27:36;;;;;;;0.10;0.00;;;3.00;99.90;;;;;;5035549;28;20074;-80
2021/03/14 05:30:04;;;;;;;0.32;0.32;;;2.90;99.90;;;;;;5031910;28;20089;-80
2021/03/14 05:32:31;;;;;;;0.10;0.10;;;3.00;99.90;;;;;;5033963;28;20069;-80
2021/03/14 05:34:56;;;;;;;0.00;0.00;;;3.10;99.90;;;;;;5046057;28;20894;-80
2021/03/14 05:37:23;;;;;;;0.10;0.00;;;2.90;99.90;;;;;;5046082;28;20070;-80
2021/03/14 05:39:49;;;;;;;0.00;0.00;;;3.00;99.90;;;;;;5040909;28;20090;-80
2021/03/14 05:42:17;;;;;;;0.20;0.10;;;3.00;99.90;;;;;;5046760;28;20188;-80
2021/03/14 05:44:45;;;;;;;0.30;0.20;;;3.00;99.90;;;;;;5041887;28;20112;-80
2021/03/14 05:47:11;;;;;;;0.10;0.10;;;3.10;99.90;;;;;;5039260;28;20074;-79
2021/03/14 05:49:37;;;;;;;0.13;0.10;;;3.10;99.90;;;;;;5040619;28;20090;-80
2021/03/14 05:52:05;;;;;;;0.03;0.03;;;3.10;99.90;;;;;;5045522;28;20161;-80
2021/03/14 05:54:32;;;;;;;0.70;0.65;;;3.10;99.90;;;;;;5043823;28;20637;-80
2021/03/14 05:57:01;;;;;;;0.40;0.40;;;3.00;99.90;;;;;;5042674;28;20076;-79
2021/03/14 05:59:29;;;;;;;0.25;0.10;;;2.90;99.90;;;;;;5027980;28;20188;-79
2021/03/14 06:01:56;;;;;;;0.15;0.10;;;2.90;99.90;;;;;;5035842;28;22245;-79
2021/03/14 06:04:22;;;;;;;0.13;0.10;;;3.00;99.90;;;;;;5032436;28;20532;-79
2021/03/14 06:06:48;;;;;;;0.32;0.10;;;3.00;99.90;;;;;;5041672;28;20193;-79
2021/03/14 06:09:14;;;;;;;0.47;0.20;;;3.00;99.90;;;;;;5050989;28;20589;-80
2021/03/14 06:11:40;;;;;;;0.63;0.20;;;3.10;99.90;;;;;;5043800;28;20082;-80
2021/03/14 06:14:06;;;;;;;0.32;0.15;;;3.10;99.90;;;;;;5050449;28;20096;-79
2021/03/14 06:16:32;;;;;;;0.52;0.30;;;3.00;99.90;;;;;;5049049;28;20102;-79
2021/03/14 06:18:57;;;;;;;1.38;0.30;;;3.00;99.90;;;;;;5032956;28;20181;-79
2021/03/14 06:21:25;;;;;;;0.40;0.20;;;3.00;99.90;;;;;;5049020;28;20101;-80
2021/03/14 06:24:06;;;;;;;0.40;0.10;;;3.10;99.90;;;;;;5048985;28;20078;-80
2021/03/14 06:26:48;;;;;;;0.82;0.22;;;3.10;99.90;;;;;;5052248;28;20093;-80
2021/03/14 06:29:17;;;;;;;1.65;0.10;;;3.00;99.90;;;;;;5049465;28;20180;-80
2021/03/14 06:31:53;;;;;;;0.43;0.10;;;3.00;99.90;;;;;;5033814;28;20074;-79
2021/03/14 06:34:39;;;;;;;0.47;0.30;;;3.10;99.90;;;;;;5041929;28;20526;-80
2021/03/14 06:37:07;;;;;;;0.40;0.20;;;3.10;99.90;;;;;;5039700;28;20097;-79
2021/03/14 06:39:34;;;;;;;1.50;0.93;;;3.10;99.90;;;;;;5055995;28;20090;-79
2021/03/14 06:42:00;;;;;;;1.67;0.95;;;3.00;99.90;;;;;;5053985;28;20105;-79
2021/03/14 06:44:31;;;;;;;1.02;0.70;;;3.00;99.90;;;;;;5052773;28;20077;-80
2021/03/14 06:46:58;;;;;;;1.20;0.60;;;3.00;99.90;;;;;;5046278;28;20627;-79
2021/03/14 06:49:26;;;;;;;2.75;0.70;;;3.10;99.90;;;;;;5049510;28;20097;-79
2021/03/14 06:51:54;;;;;;;0.55;0.32;;;3.10;99.90;;;;;;5053297;28;20081;-78
2021/03/14 06:54:36;;;;;;;1.10;0.65;;;3.20;99.90;;;;;;5072083;28;20070;-79
2021/03/14 06:57:18;;;;;;;0.43;0.43;;;3.10;99.90;;;;;;5055400;28;20089;-78
2021/03/14 06:59:52;;;;;;;0.30;0.20;;;3.10;99.90;;;;;;5033724;28;20569;-79
2021/03/14 07:02:31;;;;;;;0.77;0.40;;;3.20;99.90;;;;;;5050144;28;20070;-79
2021/03/14 07:04:57;;;;;;;0.73;0.30;;;3.20;99.90;;;;;;5043082;28;20097;-80
2021/03/14 07:07:30;;;;;;;0.10;0.10;;;3.30;99.90;;;;;;5049027;28;20111;-80
2021/03/14 07:10:08;;;;;;;0.25;0.20;;;3.30;99.90;;;;;;5041200;28;20089;-80
2021/03/14 07:12:38;;;;;;;0.90;0.40;;;3.40;99.90;;;;;;5043064;28;20217;-80
2021/03/14 07:15:10;;;;;;;0.43;0.35;;;3.40;99.90;;;;;;5038819;28;20098;-80
2021/03/14 07:17:36;;;;;;;1.42;0.40;;;3.40;99.90;;;;;;5050118;28;20164;-80
2021/03/14 07:20:11;;;;;;;1.23;0.40;;;3.50;99.90;;;;;;5043104;28;20829;-79
2021/03/14 07:22:37;;;;;;;0.73;0.30;;;3.40;99.90;;;;;;5049674;28;20100;-79
2021/03/14 07:25:06;;;;;;;1.35;0.13;;;3.40;99.90;;;;;;5046315;28;20104;-80
2021/03/14 07:27:31;;;;;;;0.22;0.10;;;3.40;99.90;;;;;;5042841;28;20153;-79
2021/03/14 07:30:00;;;;;;;0.95;0.30;;;3.50;99.90;;;;;;5050263;28;20105;-80
2021/03/14 07:32:26;;;;;;;0.35;0.20;;;3.60;99.90;;;;;;5036093;28;20143;-80
2021/03/14 07:34:52;;;;;;;0.25;0.15;;;3.60;99.90;;;;;;5033630;28;20081;-80
2021/03/14 07:37:19;;;;;;;3.17;0.50;;;3.60;99.90;;;;;;5034459;28;20081;-80
2021/03/14 07:39:48;;;;;;;0.20;0.20;;;3.60;99.90;;;;;;5031758;28;20192;-80
2021/03/14 07:42:23;;;;;;;1.35;0.50;;;3.70;99.90;;;;;;5044528;28;21503;-79
2021/03/14 07:44:49;;;;;;;;;;;3.70;99.90;;;;;;5049664;28;20130;-80
2021/03/14 07:47:17;;;;;;;0.68;0.30;;;3.70;99.90;;;;;;5053488;28;19961;-80
2021/03/14 07:49:53;;;;;;;0.65;0.30;;;3.70;99.90;;;;;;5038890;28;20145;-80
2021/03/14 07:52:28;;;;;;;2.58;1.20;;;3.70;99.90;;;;;;5048162;28;20073;-80
2021/03/14 07:55:01;;;;;;;1.35;0.50;;;3.70;99.90;;;;;;5050329;28;20089;-79
2021/03/14 07:57:29;;;;;;;3.65;1.63;;;3.70;99.90;;;;;;5053838;28;20070;-79
2021/03/14 07:59:55;;;;;;;1.27;0.63;;;3.80;99.90;;;;;;5048094;28;20093;-80
2021/03/14 08:02:27;;;;;;;0.60;0.40;;;3.80;99.90;;;;;;5051250;28;20077;-79
2021/03/14 08:04:58;;;;;;;0.75;0.38;;;3.80;99.90;;;;;;5047338;28;20096;-79
2021/03/14 08:07:33;;;;;;;1.05;0.40;;;3.80;99.90;;;;;;5031467;28;20074;-79
2021/03/14 08:09:59;;;;;;;0.95;0.40;;;3.80;99.90;;;;;;5039970;28;20207;-80
2021/03/14 08:12:26;;;;;;;0.90;0.60;;;3.70;99.90;;;;;;5036205;28;20127;-80
2021/03/14 08:14:54;;;;;;;1.20;0.60;;;3.70;99.90;;;;;;5035659;28;20098;-79
2021/03/14 08:17:35;;;;;;;1.25;0.57;;;3.70;99.90;;;;;;5044904;28;20097;-79
2021/03/14 08:20:02;;;;;;;1.17;0.93;;;3.70;99.90;;;;;;5036218;28;20157;-79
2021/03/14 08:22:37;;;;;;;1.80;1.30;;;3.70;99.90;;;;;;5050574;28;20073;-79
2021/03/14 08:25:23;;;;;;;1.35;0.70;;;3.70;99.90;;;;;;5048261;28;20088;-80
2021/03/14 08:27:51;;;;;;;0.80;0.40;;;3.60;99.90;;;;;;5050539;28;20077;-80
2021/03/14 08:30:32;;;;;;;1.15;0.70;;;3.60;99.90;;;;;;5048775;28;20082;-79
2021/03/14 08:33:21;;;;;;;0.40;0.30;;;3.70;99.90;;;;;;5048973;28;20081;-79
2021/03/14 08:35:55;;;;;;;1.38;1.08;;;3.70;99.90;;;;;;5040283;28;20104;-80
2021/03/14 08:38:57;;;;;;;1.67;0.40;;;3.80;99.90;;;;;;5044558;28;20070;-79
2021/03/14 08:41:31;;;;;;;2.78;1.88;;;3.80;99.90;;;;;;5047113;28;20609;-80
2021/03/14 08:44:01;;;;;;;0.80;0.50;;;3.80;99.90;;;;;;5045221;28;20065;-81
2021/03/14 08:46:45;;;;;;;1.60;1.02;;;3.80;99.90;;;;;;5049915;28;20088;-80
2021/03/14 08:49:12;;;;;;;1.35;0.80;;;3.80;99.90;;;;;;5031553;28;20150;-80
2021/03/14 08:51:38;;;;;;;1.70;0.50;;;3.70;99.90;;;;;;5044378;28;20495;-80
2021/03/14 08:54:03;;;;;;;0.47;0.30;;;3.80;99.90;;;;;;5046768;28;20073;-80
2021/03/14 08:56:29;;;;;;;1.55;0.47;;;3.80;99.90;;;;;;5033357;28;20113;-80
2021/03/14 08:59:14;;;;;;;1.48;0.40;;;3.70;99.90;;;;;;5038180;28;20117;-79
2021/03/14 09:01:42;;;;;;;1.23;0.60;;;3.80;99.90;;;;;;5034013;28;20549;-80
2021/03/14 09:04:12;;;;;;;1.88;0.60;;;3.70;99.90;;;;;;5036857;28;20085;-80
2021/03/14 09:06:37;;;;;;;2.50;0.57;;;3.70;99.90;;;;;;5040906;28;20085;-80
2021/03/14 09:09:08;;;;;;;1.20;0.88;;;3.80;99.90;;;;;;5033196;28;20097;-79
2021/03/14 09:11:55;;;;;;;1.73;0.60;;;3.80;99.90;;;;;;5041650;28;20564;-78
2021/03/14 09:14:28;;;;;;;2.78;0.70;;;3.80;99.90;;;;;;5032228;28;20093;-79
2021/03/14 09:17:00;;;;;;;0.98;0.50;;;3.90;99.90;;;;;;5047643;28;20224;-78
2021/03/14 09:19:29;;;;;;;2.53;0.82;;;3.90;99.90;;;;;;5038697;28;20565;-81
2021/03/14 09:21:57;;;;;;;1.40;0.52;;;3.90;99.90;;;;;;5037901;28;20164;-79
2021/03/14 09:24:31;;;;;;;0.95;0.40;;;3.90;99.90;;;;;;5042658;28;20073;-78
2021/03/14 09:27:04;;;;;;;1.00;0.38;;;3.80;99.90;;;;;;5042828;28;20135;-78
2021/03/14 09:29:48;;;;;;;1.88;0.40;;;3.80;99.90;;;;;;5043309;28;20078;-79
2021/03/14 09:32:15;;;;;;;2.60;0.80;;;3.80;99.90;;;;;;5033834;28;20073;-79
2021/03/14 09:34:41;;;;;;;1.70;0.60;;;3.80;99.90;;;;;;5027730;28;20200;-79
2021/03/14 09:37:07;;;;;;;0.63;0.50;;;3.90;99.90;;;;;;5034068;28;20686;-78
2021/03/14 09:39:33;;;;;;;1.92;0.60;;;3.90;99.90;;;;;;5032085;28;20090;-78
2021/03/14 09:41:58;;;;;;;0.85;0.45;;;3.90;99.90;;;;;;5033358;28;20078;-78
2021/03/14 09:44:24;;;;;;;1.98;0.47;;;3.90;99.90;;;;;;5036610;28;20127;-78
2021/03/14 09:46:54;;;;;;;3.60;0.50;;;3.80;99.90;;;;;;5033759;28;20122;-82
2021/03/14 09:49:20;;;;;;;2.63;0.52;;;3.70;99.90;;;;;;5038168;28;20918;-83
2021/03/14 09:51:58;;;;;;;1.05;0.43;;;3.70;99.90;;;;;;5052227;28;20180;-78
2021/03/14 09:54:25;;;;;;;2.15;0.68;;;3.80;99.90;;;;;;5039506;28;20096;-80
2021/03/14 09:56:51;;;;;;;1.02;0.50;;;3.80;99.90;;;;;;5046308;28;20148;-81
2021/03/14 09:59:27;;;;;;;2.30;0.77;;;3.80;99.90;;;;;;5045801;28;20172;-81
2021/03/14 10:01:56;;;;;;;0.88;0.65;;;3.90;99.90;;;;;;5047246;28;20164;-80
2021/03/14 10:04:23;;;;;;;6.65;3.95;;;3.90;99.90;;;;;;5053180;28;20085;-81
2021/03/14 10:06:48;;;;;;;1.50;0.65;;;3.90;99.90;;;;;;5051044;28;20094;-80
2021/03/14 10:09:21;;;;;;;1.85;0.77;;;4.00;99.90;;;;;;5044834;28;20108;-81
2021/03/14 10:11:47;;;;;;;0.65;0.65;;;4.00;99.90;;;;;;5046783;28;20116;-79
2021/03/14 10:14:16;;;;;;;1.70;0.52;;;4.10;99.90;;;;;;5044425;28;20743;-84
2021/03/14 10:16:42;;;;;;;1.55;0.70;;;4.10;99.90;;;;;;5045525;28;20119;-82
2021/03/14 10:19:08;;;;;;;1.77;0.77;;;4.20;99.90;;;;;;5044976;28;20085;-82
2021/03/14 10:21:34;;;;;;;2.45;0.80;;;4.20;99.90;;;;;;5044405;28;20492;-80
2021/03/14 10:24:18;;;;;;;2.38;1.98;;;4.30;99.90;;;;;;5052003;28;20169;-80
2021/03/14 10:26:56;;;;;;;3.25;1.83;;;4.40;99.90;;;;;;5039950;28;20098;-83
2021/03/14 10:29:31;;;;;;;2.92;1.10;;;4.50;99.90;;;;;;5047024;28;20084;-86
2021/03/14 10:31:57;;;;;;;1.77;0.80;;;4.60;99.90;;;;;;5052135;28;20131;-83
2021/03/14 10:34:24;;;;;;;4.38;2.03;;;4.70;99.90;;;;;;5060154;28;20085;-82
2021/03/14 10:36:50;;;;;;;2.38;1.10;;;4.80;99.90;;;;;;5073058;28;20188;-84
2021/03/14 10:39:26;;;;;;;1.77;0.70;;;4.80;99.90;;;;;;5064818;28;20120;-79
2021/03/14 10:41:51;;;;;;;4.38;0.60;;;4.70;99.90;;;;;;5062679;28;20080;-78
2021/03/14 10:44:22;;;;;;;3.28;0.50;;;4.80;99.90;;;;;;5055264;28;20073;-81
2021/03/14 10:46:50;;;;;;;1.00;0.77;;;4.80;99.90;;;;;;5058134;28;20205;-77
2021/03/14 10:49:18;;;;;;;1.98;0.68;;;4.80;99.90;;;;;;5054381;28;20084;-81
2021/03/14 10:51:49;;;;;;;2.03;0.60;;;4.90;99.90;;;;;;5051509;28;20093;-79
2021/03/14 10:54:16;;;;;;;18.40;12.88;;;4.90;99.90;;;;;;5053153;28;20085;-79
2021/03/14 10:56:45;;;;;;;3.35;1.60;;;4.90;99.90;;;;;;5039763;28;20089;-77
2021/03/14 10:59:25;;;;;;;3.67;1.30;;;5.00;99.90;;;;;;5044547;28;20117;-78
2021/03/14 11:02:04;;;;;;;1.88;0.95;;;5.00;99.90;;;;;;5048276;28;20222;-78
2021/03/14 11:04:32;;;;;;;3.25;0.90;;;5.00;99.90;;;;;;5037924;28;20076;-78
2021/03/14 11:06:57;;;;;;;1.05;0.40;;;5.00;99.90;;;;;;5037181;28;20160;-78
2021/03/14 11:09:26;;;;;;;0.85;0.75;;;5.00;99.90;;;;;;5045186;28;20177;-79
2021/03/14 11:11:52;;;;;;;1.98;0.88;;;5.10;99.90;;;;;;5041828;28;20109;-78
2021/03/14 11:14:36;;;;;;;0.57;0.38;;;5.30;99.90;;;;;;5032192;28;20078;-77
2021/03/14 11:17:14;;;;;;;2.25;1.90;;;5.40;99.90;;;;;;5029865;28;20081;-77
2021/03/14 11:19:43;;;;;;;1.92;0.65;;;5.50;99.90;;;;;;5032669;28;20093;-78
2021/03/14 11:22:08;;;;;;;2.03;0.40;;;5.60;99.90;;;;;;5048266;28;20168;-78
2021/03/14 11:24:34;;;;;;;1.20;0.52;;;5.50;99.90;;;;;;5038796;28;20524;-78
2021/03/14 11:27:01;;;;;;;1.80;0.60;;;5.60;99.90;;;;;;5040787;28;20089;-79
2021/03/14 11:29:27;;;;;;;2.00;0.65;;;5.60;99.90;;;;;;5042004;28;20132;-79
2021/03/14 11:31:55;;;;;;;1.50;0.70;;;5.60;99.90;;;;;;5042813;28;20488;-80
2021/03/14 11:34:21;;;;;;;3.60;0.82;;;5.70;99.90;;;;;;5054483;28;20074;-80
2021/03/14 11:36:48;;;;;;;2.17;0.73;;;5.70;99.90;;;;;;5049317;28;20098;-77
2021/03/14 11:39:14;;;;;;;2.45;0.63;;;5.60;99.90;;;;;;5046954;28;20175;-80
2021/03/14 11:41:40;;;;;;;2.00;0.50;;;5.50;99.90;;;;;;5035226;28;20080;-78
2021/03/14 11:44:06;;;;;;;1.90;0.50;;;5.50;99.90;;;;;;5047280;28;20070;-80
2021/03/14 11:46:32;;;;;;;4.28;0.50;;;5.50;99.90;;;;;;5048426;28;20104;-79
2021/03/14 11:48:58;;;;;;;1.75;0.60;;;5.40;99.90;;;;;;5046236;28;20082;-79
2021/03/14 11:51:24;;;;;;;3.40;0.88;;;5.40;99.90;;;;;;5044454;28;20680;-80
2021/03/14 11:53:50;;;;;;;2.03;0.85;;;5.30;99.90;;;;;;5049817;28;20065;-78
2021/03/14 11:56:16;;;;;;;2.55;0.45;;;5.30;99.90;;;;;;5040512;28;20101;-78
2021/03/14 11:58:41;;;;;;;3.13;0.57;;;5.20;99.90;;;;;;5040984;28;20093;-78
2021/03/14 12:01:07;;;;;;;0.60;0.38;;;5.20;99.90;;;;;;5047612;28;20070;-79
2021/03/14 12:03:33;;;;;;;1.50;1.00;;;5.30;99.90;;;;;;5040494;28;20601;-77
2021/03/14 12:05:58;;;;;;;4.97;0.77;;;5.20;99.90;;;;;;5044299;28;20538;-80
2021/03/14 12:08:24;;;;;;;4.10;0.60;;;5.30;99.90;;;;;;5036912;28;20530;-78
2021/03/14 12:10:51;;;;;;;1.98;0.90;;;5.40;99.90;;;;;;5048901;28;20078;-77
2021/03/14 12:13:17;;;;;;;2.20;0.80;;;5.50;99.90;;;;;;5042774;28;20078;-77
2021/03/14 12:15:42;;;;;;;2.00;0.73;;;5.40;99.90;;;;;;5035014;28;20101;-78
2021/03/14 12:18:08;;;;;;;3.65;0.77;;;5.30;99.90;;;;;;5046376;28;20081;-77
2021/03/14 12:20:36;;;;;;;2.38;0.80;;;5.20;99.90;;;;;;5040638;28;20093;-77
2021/03/14 12:23:02;;;;;;;4.10;0.60;;;5.20;99.90;;;;;;5040711;28;20180;-77
2021/03/14 12:25:27;;;;;;;3.85;0.75;;;5.30;99.90;;;;;;5035458;28;20165;-78
2021/03/14 12:27:53;;;;;;;1.42;0.80;;;5.30;99.90;;;;;;5029724;28;20078;-76
2021/03/14 12:30:19;;;;;;;1.60;0.68;;;5.40;99.90;;;;;;5034357;28;20094;-78
2021/03/14 12:32:44;;;;;;;3.75;0.90;;;5.30;99.90;;;;;;5042666;28;20092;-77
2021/03/14 12:35:10;;;;;;;2.92;0.70;;;5.20;99.90;;;;;;5036515;28;20745;-79
2021/03/14 12:37:36;;;;;;;1.67;1.23;;;5.20;99.90;;;;;;5040626;28;20077;-77
2021/03/14 12:40:03;;;;;;;3.05;0.93;;;5.30;99.90;;;;;;5044372;28;20085;-77
2021/03/14 12:42:29;;;;;;;1.55;0.77;;;5.40;99.90;;;;;;5045934;28;20727;-78
2021/03/14 12:44:54;;;;;;;2.45;0.47;;;5.30;99.90;;;;;;5032937;28;20101;-78
2021/03/14 12:47:20;;;;;;;2.83;0.90;;;5.20;99.90;;;;;;5031633;28;20074;-77
2021/03/14 12:49:45;;;;;;;1.63;0.70;;;5.20;99.90;;;;;;5036189;28;20092;-77
2021/03/14 12:52:11;;;;;;;4.22;2.28;;;5.20;99.90;;;;;;5045906;28;20087;-77
2021/03/14 12:54:37;;;;;;;2.20;0.60;;;5.20;99.90;;;;;;5029653;28;20085;-77
2021/03/14 12:57:03;;;;;;;2.15;0.40;;;5.20;99.90;;;;;;5029704;28;20077;-78
2021/03/14 12:59:28;;;;;;;1.75;0.50;;;5.20;99.90;;;;;;5033803;28;20518;-79
2021/03/14 13:01:54;;;;;;;3.97;0.98;;;5.30;99.90;;;;;;5046618;28;20140;-78
2021/03/14 13:04:19;;;;;;;1.42;0.60;;;5.30;99.90;;;;;;5040463;28;20092;-78